createdAt,value
2018-03-27T00:00:34.981Z,26.60
2018-03-27T00:01:34.847Z,25.20
2018-03-27T00:02:34.720Z,26.30
2018-03-27T00:03:34.588Z,26.00
2018-03-27T00:04:34.463Z,25.60
2018-03-27T00:05:34.328Z,26.50
2018-03-27T00:06:34.194Z,25.90
2018-03-27T00:07:34.064Z,25.50
2018-03-27T00:08:33.931Z,24.70
2018-03-27T00:09:33.803Z,26.10
2018-03-27T00:10:33.671Z,27.00
2018-03-27T00:11:33.540Z,26.90
2018-03-27T00:12:33.407Z,26.40
2018-03-27T00:13:33.280Z,27.70
2018-03-27T00:14:33.151Z,27.30
2018-03-27T00:15:33.017Z,26.00
2018-03-27T00:16:32.883Z,27.20
2018-03-27T00:17:32.751Z,26.90
2018-03-27T00:18:32.623Z,27.50
2018-03-27T00:19:32.490Z,26.60
2018-03-27T00:20:32.363Z,26.90
2018-03-27T00:21:32.227Z,26.30
2018-03-27T00:22:32.096Z,27.30
2018-03-27T00:23:31.965Z,27.30
2018-03-27T00:24:31.836Z,28.30
2018-03-27T00:25:31.703Z,28.10
2018-03-27T00:26:31.572Z,28.60
2018-03-27T00:27:31.440Z,30.80
2018-03-27T00:28:31.310Z,29.00
2018-03-27T00:29:31.177Z,29.80
2018-03-27T00:30:31.046Z,30.00
2018-03-27T00:31:30.916Z,29.60
2018-03-27T00:32:30.782Z,29.20
2018-03-27T00:33:30.653Z,29.10
2018-03-27T00:34:30.521Z,30.60
2018-03-27T00:35:30.389Z,32.00
2018-03-27T00:36:30.256Z,32.10
2018-03-27T00:37:30.126Z,31.00
2018-03-27T00:38:29.998Z,31.00
2018-03-27T00:39:29.863Z,32.00
2018-03-27T00:40:29.731Z,33.60
2018-03-27T00:41:29.599Z,31.80
2018-03-27T00:42:29.468Z,32.20
2018-03-27T00:43:29.337Z,34.20
2018-03-27T00:44:29.205Z,33.60
2018-03-27T00:45:29.073Z,33.40
2018-03-27T00:46:28.940Z,32.40
2018-03-27T00:47:28.810Z,35.40
2018-03-27T00:48:28.677Z,33.20
2018-03-27T00:49:28.544Z,32.90
2018-03-27T00:50:28.417Z,32.40
2018-03-27T00:51:28.286Z,31.60
2018-03-27T00:52:28.153Z,31.00
2018-03-27T00:53:28.021Z,30.10
2018-03-27T00:54:27.899Z,29.60
2018-03-27T00:55:27.762Z,31.50
2018-03-27T00:56:27.629Z,29.80
2018-03-27T00:57:27.498Z,29.70
2018-03-27T00:58:27.368Z,28.90
2018-03-27T00:59:27.238Z,28.20
2018-03-27T01:00:27.106Z,29.20
2018-03-27T01:01:26.972Z,28.00
2018-03-27T01:02:26.851Z,26.80
2018-03-27T01:03:26.711Z,26.50
2018-03-27T01:04:26.581Z,24.70
2018-03-27T01:05:26.447Z,25.00
2018-03-27T01:06:26.318Z,23.60
2018-03-27T01:07:26.186Z,23.10
2018-03-27T01:08:26.053Z,24.10
2018-03-27T01:09:25.922Z,24.00
2018-03-27T01:10:25.795Z,25.40
2018-03-27T01:11:25.660Z,25.90
2018-03-27T01:12:25.528Z,24.90
2018-03-27T01:13:25.398Z,25.70
2018-03-27T01:14:25.267Z,25.60
2018-03-27T01:15:25.135Z,25.80
2018-03-27T01:16:25.003Z,25.10
2018-03-27T01:17:24.877Z,24.60
2018-03-27T01:18:24.743Z,25.30
2018-03-27T01:19:24.614Z,25.10
2018-03-27T01:20:24.478Z,25.80
2018-03-27T01:21:24.346Z,25.10
2018-03-27T01:22:24.220Z,25.10
2018-03-27T01:23:24.088Z,24.90
2018-03-27T01:24:23.956Z,24.70
2018-03-27T01:25:23.835Z,24.70
2018-03-27T01:26:23.695Z,24.90
2018-03-27T01:27:23.565Z,23.40
2018-03-27T01:28:23.430Z,24.70
2018-03-27T01:29:23.298Z,25.10
2018-03-27T01:30:23.169Z,27.60
2018-03-27T01:31:23.040Z,31.20
2018-03-27T01:32:22.911Z,34.60
2018-03-27T01:33:22.773Z,36.70
2018-03-27T01:34:22.642Z,36.90
2018-03-27T01:35:22.512Z,36.60
2018-03-27T01:36:22.379Z,40.60
2018-03-27T01:37:22.248Z,40.40
2018-03-27T01:38:22.116Z,42.30
2018-03-27T01:39:21.985Z,44.90
2018-03-27T01:40:21.855Z,42.90
2018-03-27T01:41:21.723Z,42.30
2018-03-27T01:42:21.591Z,43.30
2018-03-27T01:43:21.459Z,42.70
2018-03-27T01:44:21.326Z,44.80
2018-03-27T01:45:21.195Z,46.40
2018-03-27T01:46:21.066Z,45.10
2018-03-27T01:47:20.937Z,48.10
2018-03-27T01:48:20.801Z,47.20
2018-03-27T01:49:20.667Z,51.50
2018-03-27T01:50:20.537Z,49.20
2018-03-27T01:51:20.407Z,48.50
2018-03-27T01:52:20.270Z,47.80
2018-03-27T01:53:20.142Z,46.30
2018-03-27T01:54:20.011Z,45.90
2018-03-27T01:55:19.883Z,42.50
2018-03-27T01:56:19.745Z,44.30
2018-03-27T01:57:19.615Z,43.20
2018-03-27T01:58:19.486Z,41.90
2018-03-27T01:59:19.350Z,39.10
2018-03-27T02:00:19.217Z,38.80
2018-03-27T02:01:19.088Z,36.70
2018-03-27T02:02:19.012Z,36.80
2018-03-27T02:03:18.823Z,39.00
2018-03-27T02:04:18.691Z,40.10
2018-03-27T02:05:18.561Z,37.50
2018-03-27T02:06:18.430Z,38.10
2018-03-27T02:07:18.298Z,36.00
2018-03-27T02:08:18.166Z,35.00
2018-03-27T02:09:18.033Z,34.10
2018-03-27T02:10:17.903Z,34.70
2018-03-27T02:11:17.772Z,36.60
2018-03-27T02:12:17.637Z,35.20
2018-03-27T02:13:17.508Z,33.70
2018-03-27T02:14:17.376Z,34.80
2018-03-27T02:15:17.247Z,32.50
2018-03-27T02:16:17.113Z,35.10
2018-03-27T02:17:16.980Z,36.50
2018-03-27T02:18:16.850Z,36.20
2018-03-27T02:19:16.717Z,38.90
2018-03-27T02:20:16.585Z,41.30
2018-03-27T02:21:16.455Z,41.10
2018-03-27T02:22:16.325Z,41.50
2018-03-27T02:23:16.191Z,41.40
2018-03-27T02:24:16.059Z,42.60
2018-03-27T02:25:15.927Z,42.20
2018-03-27T02:26:15.794Z,41.40
2018-03-27T02:27:15.663Z,42.30
2018-03-27T02:28:15.534Z,41.20
2018-03-27T02:29:15.401Z,40.90
2018-03-27T02:30:15.270Z,40.00
2018-03-27T02:31:15.139Z,37.90
2018-03-27T02:32:15.005Z,36.40
2018-03-27T02:33:14.875Z,33.80
2018-03-27T02:34:14.744Z,35.60
2018-03-27T02:35:14.610Z,35.40
2018-03-27T02:36:14.483Z,33.90
2018-03-27T02:37:14.349Z,34.10
2018-03-27T02:38:14.216Z,32.70
2018-03-27T02:39:14.084Z,32.90
2018-03-27T02:40:13.951Z,33.20
2018-03-27T02:41:13.823Z,34.00
2018-03-27T02:42:13.698Z,35.00
2018-03-27T02:43:13.558Z,35.70
2018-03-27T02:44:13.427Z,37.00
2018-03-27T02:45:13.295Z,37.30
2018-03-27T02:46:13.163Z,39.10
2018-03-27T02:47:13.032Z,37.90
2018-03-27T02:48:12.899Z,40.20
2018-03-27T02:49:12.770Z,44.30
2018-03-27T02:50:12.638Z,45.50
2018-03-27T02:51:12.506Z,44.40
2018-03-27T02:52:12.374Z,42.10
2018-03-27T02:53:12.244Z,41.70
2018-03-27T02:54:12.124Z,42.50
2018-03-27T02:55:11.982Z,41.90
2018-03-27T02:56:11.846Z,41.00
2018-03-27T02:57:11.717Z,40.10
2018-03-27T02:58:11.583Z,41.00
2018-03-27T02:59:11.453Z,41.30
2018-03-27T03:00:11.320Z,41.10
2018-03-27T03:01:11.188Z,42.10
2018-03-27T03:02:11.056Z,44.00
2018-03-27T03:03:10.924Z,43.80
2018-03-27T03:04:10.791Z,44.40
2018-03-27T03:05:10.659Z,45.10
2018-03-27T03:06:10.529Z,45.70
2018-03-27T03:07:10.398Z,43.40
2018-03-27T03:08:10.265Z,42.90
2018-03-27T03:09:10.135Z,43.70
2018-03-27T03:10:10.000Z,45.40
2018-03-27T03:11:09.868Z,42.50
2018-03-27T03:12:09.736Z,41.90
2018-03-27T03:13:09.604Z,41.80
2018-03-27T03:14:09.475Z,43.10
2018-03-27T03:15:09.342Z,43.20
2018-03-27T03:16:09.207Z,43.00
2018-03-27T03:17:09.081Z,44.70
2018-03-27T03:18:08.942Z,43.50
2018-03-27T03:19:08.837Z,42.90
2018-03-27T03:20:08.679Z,42.30
2018-03-27T03:21:08.549Z,37.60
2018-03-27T03:22:08.417Z,37.50
2018-03-27T03:23:08.285Z,35.50
2018-03-27T03:24:08.152Z,30.70
2018-03-27T03:25:08.022Z,29.40
2018-03-27T03:26:07.887Z,29.80
2018-03-27T03:27:07.758Z,31.90
2018-03-27T03:28:07.627Z,35.00
2018-03-27T03:29:07.494Z,33.20
2018-03-27T03:30:07.365Z,27.20
2018-03-27T03:31:07.234Z,24.80
2018-03-27T03:32:07.098Z,23.60
2018-03-27T03:33:06.965Z,24.60
2018-03-27T03:34:06.836Z,23.10
2018-03-27T03:35:06.703Z,24.50
2018-03-27T03:36:06.575Z,24.30
2018-03-27T03:37:06.437Z,24.30
2018-03-27T03:38:06.306Z,24.10
2018-03-27T03:39:06.175Z,24.30
2018-03-27T03:40:06.042Z,23.40
2018-03-27T03:41:05.910Z,23.80
2018-03-27T03:42:05.778Z,23.20
2018-03-27T03:43:05.648Z,23.00
2018-03-27T03:44:05.515Z,23.90
2018-03-27T03:45:05.385Z,24.00
2018-03-27T03:46:05.255Z,23.90
2018-03-27T03:47:05.126Z,23.70
2018-03-27T03:48:04.990Z,24.00
2018-03-27T03:49:04.868Z,24.30
2018-03-27T03:50:04.725Z,25.30
2018-03-27T03:51:04.593Z,24.60
2018-03-27T03:52:04.462Z,25.20
2018-03-27T03:53:04.400Z,23.80
2018-03-27T03:54:04.198Z,24.60
2018-03-27T03:55:04.066Z,24.90
2018-03-27T03:56:03.936Z,24.20
2018-03-27T03:57:03.808Z,25.30
2018-03-27T03:58:03.675Z,24.60
2018-03-27T03:59:03.541Z,24.60
2018-03-27T04:00:03.407Z,24.80
2018-03-27T04:01:03.276Z,25.60
2018-03-27T04:02:03.145Z,24.60
2018-03-27T04:03:03.015Z,24.70
2018-03-27T04:04:02.882Z,24.30
2018-03-27T04:05:02.751Z,24.50
2018-03-27T04:06:02.622Z,24.10
2018-03-27T04:07:02.489Z,23.30
2018-03-27T04:08:02.353Z,22.50
2018-03-27T04:09:02.229Z,22.40
2018-03-27T04:10:02.089Z,22.70
2018-03-27T04:11:01.961Z,22.20
2018-03-27T04:12:01.828Z,22.60
2018-03-27T04:13:01.694Z,21.50
2018-03-27T04:14:01.563Z,21.40
2018-03-27T04:15:01.432Z,21.60
2018-03-27T04:16:01.298Z,20.80
2018-03-27T04:17:01.169Z,21.00
2018-03-27T04:18:01.039Z,20.80
2018-03-27T04:19:00.904Z,19.50
2018-03-27T04:20:00.771Z,21.00
2018-03-27T04:21:00.640Z,20.50
2018-03-27T04:22:00.548Z,21.00
2018-03-27T04:23:00.378Z,19.40
2018-03-27T04:24:00.245Z,19.50
2018-03-27T04:25:00.115Z,19.70
2018-03-27T04:26:00.169Z,19.40
2018-03-27T04:27:00.658Z,21.20
2018-03-27T04:28:01.830Z,25.30
2018-03-27T04:28:59.584Z,29.70
2018-03-27T04:29:59.463Z,28.90
2018-03-27T04:30:59.393Z,27.80
2018-03-27T04:31:59.190Z,27.50
2018-03-27T04:32:59.058Z,30.30
2018-03-27T04:33:58.932Z,32.70
2018-03-27T04:34:59.370Z,31.60
2018-03-27T04:35:58.666Z,32.30
2018-03-27T04:36:58.532Z,32.90
2018-03-27T04:37:58.408Z,32.00
2018-03-27T04:38:58.306Z,32.20
2018-03-27T04:39:58.134Z,31.80
2018-03-27T04:40:58.004Z,28.40
2018-03-27T04:41:57.875Z,25.90
2018-03-27T04:42:57.745Z,24.20
2018-03-27T04:43:57.608Z,23.10
2018-03-27T04:44:57.485Z,21.70
2018-03-27T04:45:57.346Z,22.20
2018-03-27T04:46:57.217Z,21.10
2018-03-27T04:47:57.085Z,22.40
2018-03-27T04:48:56.951Z,21.50
2018-03-27T04:49:56.819Z,21.80
2018-03-27T04:50:56.689Z,21.80
2018-03-27T04:51:56.556Z,20.00
2018-03-27T04:52:56.426Z,21.60
2018-03-27T04:53:56.294Z,23.60
2018-03-27T04:54:56.163Z,25.20
2018-03-27T04:55:56.030Z,27.40
2018-03-27T04:56:55.898Z,29.50
2018-03-27T04:57:55.769Z,30.00
2018-03-27T04:58:55.636Z,31.00
2018-03-27T04:59:55.504Z,31.20
2018-03-27T05:00:55.374Z,31.60
2018-03-27T05:01:55.241Z,31.20
2018-03-27T05:02:55.109Z,33.00
2018-03-27T05:03:54.975Z,32.80
2018-03-27T05:04:54.846Z,33.70
2018-03-27T05:05:54.714Z,32.90
2018-03-27T05:06:54.583Z,32.80
2018-03-27T05:07:54.448Z,32.80
2018-03-27T05:08:54.319Z,30.60
2018-03-27T05:09:54.186Z,30.10
2018-03-27T05:10:54.054Z,30.20
2018-03-27T05:11:53.924Z,29.30
2018-03-27T05:12:53.795Z,30.70
2018-03-27T05:13:53.659Z,30.10
2018-03-27T05:14:53.531Z,28.10
2018-03-27T05:15:53.394Z,28.30
2018-03-27T05:16:53.270Z,29.20
2018-03-27T05:17:53.135Z,30.50
2018-03-27T05:18:53.015Z,30.90
2018-03-27T05:19:52.870Z,31.20
2018-03-27T05:20:52.738Z,32.10
2018-03-27T05:21:52.611Z,33.30
2018-03-27T05:22:52.481Z,32.50
2018-03-27T05:23:52.344Z,33.10
2018-03-27T05:24:52.214Z,29.20
2018-03-27T05:25:52.082Z,27.80
2018-03-27T05:26:51.952Z,26.80
2018-03-27T05:27:51.819Z,28.00
2018-03-27T05:28:51.693Z,28.50
2018-03-27T05:29:51.605Z,27.90
2018-03-27T05:30:51.425Z,28.20
2018-03-27T05:31:51.291Z,30.20
2018-03-27T05:32:51.213Z,31.30
2018-03-27T05:33:51.032Z,31.90
2018-03-27T05:34:50.901Z,33.00
2018-03-27T05:35:50.768Z,32.90
2018-03-27T05:36:50.642Z,32.10
2018-03-27T05:37:50.541Z,31.60
2018-03-27T05:38:50.373Z,32.00
2018-03-27T05:39:50.244Z,31.00
2018-03-27T05:40:50.114Z,31.40
2018-03-27T05:41:49.977Z,31.60
2018-03-27T05:42:49.848Z,31.90
2018-03-27T05:43:49.716Z,31.40
2018-03-27T05:44:49.582Z,31.10
2018-03-27T05:45:49.453Z,31.40
2018-03-27T05:46:49.321Z,30.80
2018-03-27T05:47:49.196Z,31.60
2018-03-27T05:48:49.057Z,30.60
2018-03-27T05:49:48.922Z,30.70
2018-03-27T05:50:48.792Z,30.00
2018-03-27T05:51:48.692Z,30.50
2018-03-27T05:52:48.527Z,29.70
2018-03-27T05:53:48.401Z,28.40
2018-03-27T05:54:48.267Z,27.20
2018-03-27T05:55:48.136Z,26.80
2018-03-27T05:56:48.001Z,27.30
2018-03-27T05:57:47.872Z,27.80
2018-03-27T05:58:47.741Z,26.50
2018-03-27T05:59:47.623Z,25.80
2018-03-27T06:00:47.475Z,25.80
2018-03-27T06:01:47.342Z,27.30
2018-03-27T06:02:47.214Z,27.40
2018-03-27T06:03:47.080Z,25.20
2018-03-27T06:04:46.953Z,25.80
2018-03-27T06:05:46.817Z,26.60
2018-03-27T06:06:46.689Z,27.60
2018-03-27T06:07:46.553Z,29.90
2018-03-27T06:08:46.425Z,28.00
2018-03-27T06:09:46.291Z,29.50
2018-03-27T06:10:46.158Z,29.60
2018-03-27T06:11:46.027Z,31.10
2018-03-27T06:12:45.893Z,30.60
2018-03-27T06:13:45.763Z,31.30
2018-03-27T06:14:45.635Z,31.40
2018-03-27T06:15:45.497Z,31.60
2018-03-27T06:16:45.364Z,32.10
2018-03-27T06:17:45.241Z,33.30
2018-03-27T06:18:45.815Z,32.00
2018-03-27T06:19:44.969Z,34.50
2018-03-27T06:20:44.837Z,35.10
2018-03-27T06:21:44.704Z,35.80
2018-03-27T06:22:44.572Z,35.30
2018-03-27T06:23:44.439Z,34.60
2018-03-27T06:24:44.308Z,32.80
2018-03-27T06:25:44.179Z,33.10
2018-03-27T06:26:44.046Z,34.90
2018-03-27T06:27:43.935Z,34.80
2018-03-27T06:28:43.780Z,36.60
2018-03-27T06:29:43.646Z,33.80
2018-03-27T06:30:43.517Z,35.50
2018-03-27T06:31:43.392Z,35.80
2018-03-27T06:32:43.253Z,36.60
2018-03-27T06:33:43.121Z,33.60
2018-03-27T06:34:42.990Z,32.70
2018-03-27T06:35:42.856Z,31.10
2018-03-27T06:36:42.726Z,30.80
2018-03-27T06:37:42.594Z,30.40
2018-03-27T06:38:42.463Z,30.00
2018-03-27T06:39:42.329Z,29.00
2018-03-27T06:40:42.201Z,28.50
2018-03-27T06:41:42.067Z,29.40
2018-03-27T06:42:41.937Z,31.60
2018-03-27T06:43:41.804Z,41.00
2018-03-27T06:44:41.673Z,41.70
2018-03-27T06:45:41.546Z,34.10
2018-03-27T06:46:41.475Z,30.70
2018-03-27T06:47:41.294Z,30.70
2018-03-27T06:48:41.147Z,28.70
2018-03-27T06:49:41.018Z,30.20
2018-03-27T06:50:40.885Z,31.60
2018-03-27T06:51:40.751Z,31.20
2018-03-27T06:52:40.622Z,35.00
2018-03-27T06:53:40.491Z,35.80
2018-03-27T06:54:40.358Z,37.10
2018-03-27T06:55:40.229Z,37.00
2018-03-27T06:56:40.099Z,34.80
2018-03-27T06:57:39.965Z,35.70
2018-03-27T06:58:39.832Z,34.30
2018-03-27T06:59:39.701Z,32.70
2018-03-27T07:00:40.323Z,32.70
2018-03-27T07:01:39.472Z,30.70
2018-03-27T07:02:39.340Z,30.50
2018-03-27T07:03:39.214Z,30.60
2018-03-27T07:04:39.046Z,32.10
2018-03-27T07:05:39.000Z,33.10
2018-03-27T07:06:38.808Z,36.00
2018-03-27T07:07:38.651Z,36.40
2018-03-27T07:08:38.524Z,33.50
2018-03-27T07:09:38.385Z,36.40
2018-03-27T07:10:38.338Z,34.30
2018-03-27T07:11:38.130Z,34.20
2018-03-27T07:12:37.992Z,32.20
2018-03-27T07:13:37.874Z,32.20
2018-03-27T07:14:37.726Z,32.90
2018-03-27T07:15:37.593Z,32.50
2018-03-27T07:16:37.512Z,30.90
2018-03-27T07:17:37.368Z,31.30
2018-03-27T07:18:37.200Z,28.70
2018-03-27T07:19:37.068Z,28.40
2018-03-27T07:20:36.966Z,29.50
2018-03-27T07:21:36.807Z,28.60
2018-03-27T07:22:36.670Z,29.30
2018-03-27T07:23:36.540Z,29.80
2018-03-27T07:24:36.406Z,28.00
2018-03-27T07:25:36.279Z,28.60
2018-03-27T07:26:36.143Z,26.90
2018-03-27T07:27:36.013Z,27.80
2018-03-27T07:28:35.880Z,27.00
2018-03-27T07:29:35.749Z,26.10
2018-03-27T07:30:35.618Z,26.00
2018-03-27T07:31:35.485Z,25.90
2018-03-27T07:32:35.355Z,27.00
2018-03-27T07:33:35.225Z,26.00
2018-03-27T07:34:35.091Z,25.80
2018-03-27T07:35:34.960Z,26.30
2018-03-27T07:36:34.836Z,27.20
2018-03-27T07:37:34.702Z,26.80
2018-03-27T07:38:34.568Z,25.00
2018-03-27T07:39:34.434Z,28.70
2018-03-27T07:40:34.308Z,29.00
2018-03-27T07:41:34.173Z,29.40
2018-03-27T07:42:34.060Z,29.60
2018-03-27T07:43:33.910Z,29.40
2018-03-27T07:44:33.779Z,29.90
2018-03-27T07:45:33.647Z,28.90
2018-03-27T07:46:33.516Z,29.60
2018-03-27T07:47:33.385Z,29.70
2018-03-27T07:48:33.257Z,30.20
2018-03-27T07:49:33.137Z,30.50
2018-03-27T07:50:32.990Z,31.10
2018-03-27T07:51:32.856Z,29.20
2018-03-27T07:52:32.727Z,27.90
2018-03-27T07:53:32.605Z,29.90
2018-03-27T07:54:32.476Z,30.80
2018-03-27T07:55:32.331Z,29.10
2018-03-27T07:56:32.204Z,31.10
2018-03-27T07:57:32.071Z,30.00
2018-03-27T07:58:31.945Z,29.30
2018-03-27T07:59:31.808Z,29.90
2018-03-27T08:00:31.677Z,30.20
2018-03-27T08:01:31.546Z,29.20
2018-03-27T08:02:31.414Z,29.20
2018-03-27T08:03:31.336Z,29.60
2018-03-27T08:04:31.153Z,31.40
2018-03-27T08:05:31.022Z,31.70
2018-03-27T08:06:30.889Z,31.50
2018-03-27T08:07:30.760Z,31.80
2018-03-27T08:08:30.627Z,34.80
2018-03-27T08:09:30.496Z,32.40
2018-03-27T08:10:30.362Z,32.80
2018-03-27T08:11:30.231Z,34.20
2018-03-27T08:12:30.100Z,34.00
2018-03-27T08:13:29.970Z,32.40
2018-03-27T08:14:29.839Z,32.60
2018-03-27T08:15:29.708Z,32.80
2018-03-27T08:16:29.575Z,33.50
2018-03-27T08:17:29.443Z,33.40
2018-03-27T08:18:29.361Z,33.60
2018-03-27T08:19:29.184Z,32.00
2018-03-27T08:20:29.048Z,32.10
2018-03-27T08:21:28.920Z,30.70
2018-03-27T08:22:28.788Z,30.10
2018-03-27T08:23:28.657Z,30.50
2018-03-27T08:24:28.581Z,30.20
2018-03-27T08:25:28.391Z,29.10
2018-03-27T08:26:28.259Z,27.80
2018-03-27T08:27:28.189Z,28.90
2018-03-27T08:28:27.999Z,29.20
2018-03-27T08:29:27.867Z,28.10
2018-03-27T08:30:27.737Z,29.90
2018-03-27T08:31:27.602Z,30.60
2018-03-27T08:32:27.475Z,32.00
2018-03-27T08:33:27.341Z,30.50
2018-03-27T08:34:27.211Z,29.80
2018-03-27T08:35:27.077Z,30.40
2018-03-27T08:36:26.956Z,30.50
2018-03-27T08:37:26.817Z,29.00
2018-03-27T08:38:26.684Z,29.50
2018-03-27T08:39:26.552Z,27.60
2018-03-27T08:40:26.421Z,26.10
2018-03-27T08:41:26.290Z,26.80
2018-03-27T08:42:26.158Z,27.30
2018-03-27T08:43:26.079Z,27.00
2018-03-27T08:44:25.893Z,26.90
2018-03-27T08:45:25.764Z,26.90
2018-03-27T08:46:25.632Z,27.90
2018-03-27T08:47:25.497Z,26.80
2018-03-27T08:48:25.366Z,25.80
2018-03-27T08:49:25.239Z,27.10
2018-03-27T08:50:25.107Z,26.00
2018-03-27T08:51:24.973Z,25.60
2018-03-27T08:52:24.842Z,26.90
2018-03-27T08:53:24.712Z,27.50
2018-03-27T08:54:24.582Z,25.20
2018-03-27T08:55:24.450Z,26.10
2018-03-27T08:56:24.316Z,26.00
2018-03-27T08:57:24.187Z,25.40
2018-03-27T08:58:24.057Z,27.00
2018-03-27T08:59:23.924Z,25.90
2018-03-27T09:00:23.794Z,26.70
2018-03-27T09:01:23.665Z,25.20
2018-03-27T09:02:23.531Z,25.60
2018-03-27T09:03:23.400Z,24.80
2018-03-27T09:04:23.268Z,25.10
2018-03-27T09:05:23.180Z,24.60
2018-03-27T09:06:23.009Z,21.80
2018-03-27T09:07:22.881Z,22.80
2018-03-27T09:08:22.744Z,24.00
2018-03-27T09:09:22.617Z,22.30
2018-03-27T09:10:22.486Z,22.10
2018-03-27T09:11:22.353Z,22.50
2018-03-27T09:12:22.226Z,23.00
2018-03-27T09:13:22.096Z,24.00
2018-03-27T09:14:21.965Z,23.40
2018-03-27T09:15:21.833Z,23.40
2018-03-27T09:16:21.702Z,22.00
2018-03-27T09:17:21.574Z,21.40
2018-03-27T09:18:21.444Z,21.70
2018-03-27T09:19:21.314Z,23.60
2018-03-27T09:20:21.184Z,23.50
2018-03-27T09:21:21.052Z,23.20
2018-03-27T09:22:20.924Z,23.10
2018-03-27T09:23:20.823Z,23.40
2018-03-27T09:24:20.661Z,24.20
2018-03-27T09:25:20.534Z,23.60
2018-03-27T09:26:20.405Z,24.60
2018-03-27T09:27:20.275Z,23.80
2018-03-27T09:28:20.141Z,23.50
2018-03-27T09:29:20.015Z,23.50
2018-03-27T09:30:19.880Z,22.80
2018-03-27T09:31:19.753Z,22.40
2018-03-27T09:32:19.623Z,22.50
2018-03-27T09:33:19.493Z,22.80
2018-03-27T09:34:19.365Z,21.50
2018-03-27T09:35:19.231Z,20.80
2018-03-27T09:36:19.101Z,21.40
2018-03-27T09:37:18.973Z,22.20
2018-03-27T09:38:18.843Z,22.20
2018-03-27T09:39:18.711Z,20.40
2018-03-27T09:40:18.592Z,19.50
2018-03-27T09:41:18.453Z,20.50
2018-03-27T09:42:18.323Z,19.40
2018-03-27T09:43:18.196Z,19.70
2018-03-27T09:44:18.067Z,18.70
2018-03-27T09:45:17.935Z,19.30
2018-03-27T09:46:17.805Z,20.50
2018-03-27T09:47:17.677Z,19.70
2018-03-27T09:48:17.546Z,20.00
2018-03-27T09:49:17.418Z,19.50
2018-03-27T09:50:17.290Z,19.40
2018-03-27T09:51:17.159Z,20.10
2018-03-27T09:52:17.034Z,20.10
2018-03-27T09:53:16.901Z,19.00
2018-03-27T09:54:16.817Z,20.60
2018-03-27T09:55:16.646Z,19.90
2018-03-27T09:56:16.520Z,19.10
2018-03-27T09:57:16.390Z,19.70
2018-03-27T09:58:16.262Z,19.10
2018-03-27T09:59:16.134Z,17.90
2018-03-27T10:00:16.007Z,18.50
2018-03-27T10:01:15.880Z,19.10
2018-03-27T10:02:15.761Z,18.20
2018-03-27T10:03:15.622Z,18.40
2018-03-27T10:04:15.497Z,18.90
2018-03-27T10:05:15.369Z,18.30
2018-03-27T10:06:15.243Z,18.00
2018-03-27T10:07:15.114Z,17.40
2018-03-27T10:08:14.988Z,17.50
2018-03-27T10:09:14.859Z,18.20
2018-03-27T10:10:14.735Z,17.70
2018-03-27T10:11:14.606Z,16.80
2018-03-27T10:12:14.480Z,18.80
2018-03-27T10:13:14.354Z,18.80
2018-03-27T10:14:14.225Z,17.10
2018-03-27T10:15:14.096Z,18.70
2018-03-27T10:16:13.971Z,17.80
2018-03-27T10:17:13.843Z,17.60
2018-03-27T10:18:13.718Z,17.60
2018-03-27T10:19:13.589Z,17.10
2018-03-27T10:20:13.462Z,16.90
2018-03-27T10:21:13.335Z,16.20
2018-03-27T10:22:13.222Z,16.20
2018-03-27T10:23:13.082Z,16.90
2018-03-27T10:24:12.957Z,17.70
2018-03-27T10:25:12.830Z,18.10
2018-03-27T10:26:12.704Z,17.30
2018-03-27T10:27:12.576Z,17.00
2018-03-27T10:28:12.452Z,17.30
2018-03-27T10:29:12.324Z,17.00
2018-03-27T10:30:12.198Z,16.90
2018-03-27T10:31:12.071Z,15.90
2018-03-27T10:32:11.943Z,15.60
2018-03-27T10:33:11.824Z,14.80
2018-03-27T10:34:11.693Z,15.10
2018-03-27T10:35:11.567Z,12.10
2018-03-27T10:36:11.438Z,12.80
2018-03-27T10:37:11.315Z,12.70
2018-03-27T10:38:11.191Z,14.10
2018-03-27T10:39:11.065Z,14.50
2018-03-27T10:40:10.940Z,12.60
2018-03-27T10:41:10.815Z,13.20
2018-03-27T10:42:10.692Z,14.10
2018-03-27T10:43:10.564Z,14.60
2018-03-27T10:44:10.439Z,13.70
2018-03-27T10:45:11.280Z,15.10
2018-03-27T10:46:10.779Z,14.40
2018-03-27T10:47:10.072Z,14.90
2018-03-27T10:48:09.952Z,14.90
2018-03-27T10:49:10.779Z,14.50
2018-03-27T10:50:09.685Z,14.60
2018-03-27T10:51:09.559Z,14.40
2018-03-27T10:52:09.435Z,14.80
2018-03-27T10:53:09.327Z,15.30
2018-03-27T10:54:09.181Z,15.10
2018-03-27T10:55:09.055Z,14.70
2018-03-27T10:56:08.929Z,15.90
2018-03-27T10:57:08.806Z,14.90
2018-03-27T10:58:08.676Z,15.30
2018-03-27T10:59:08.553Z,13.90
2018-03-27T11:00:08.423Z,13.90
2018-03-27T11:01:08.296Z,13.60
2018-03-27T11:02:08.169Z,13.00
2018-03-27T11:03:08.044Z,10.60
2018-03-27T11:04:07.916Z,10.60
2018-03-27T11:05:07.790Z,10.20
2018-03-27T11:06:07.663Z,10.10
2018-03-27T11:07:07.537Z,10.60
2018-03-27T11:08:07.409Z,11.90
2018-03-27T11:09:07.279Z,13.50
2018-03-27T11:10:07.155Z,13.00
2018-03-27T11:11:07.028Z,13.30
2018-03-27T11:12:06.900Z,12.20
2018-03-27T11:13:06.771Z,10.90
2018-03-27T11:14:06.643Z,11.40
2018-03-27T11:15:06.519Z,11.50
2018-03-27T11:16:06.393Z,12.10
2018-03-27T11:17:06.260Z,12.40
2018-03-27T11:18:06.133Z,12.00
2018-03-27T11:19:06.004Z,12.90
2018-03-27T11:20:05.878Z,12.60
2018-03-27T11:21:05.753Z,12.50
2018-03-27T11:22:05.729Z,12.00
2018-03-27T11:23:05.492Z,11.50
2018-03-27T11:24:05.391Z,12.50
2018-03-27T11:25:05.240Z,12.40
2018-03-27T11:26:05.109Z,12.30
2018-03-27T11:27:04.983Z,12.30
2018-03-27T11:28:04.856Z,12.60
2018-03-27T11:29:04.727Z,12.40
2018-03-27T11:30:04.611Z,12.10
2018-03-27T11:31:04.471Z,11.20
2018-03-27T11:32:04.347Z,11.60
2018-03-27T11:33:04.248Z,12.20
2018-03-27T11:34:04.089Z,12.50
2018-03-27T11:35:03.965Z,13.40
2018-03-27T11:36:03.869Z,13.80
2018-03-27T11:37:03.706Z,12.70
2018-03-27T11:38:03.574Z,13.20
2018-03-27T11:39:03.446Z,12.50
2018-03-27T11:40:03.417Z,10.70
2018-03-27T11:41:03.192Z,12.20
2018-03-27T11:42:03.069Z,11.80
2018-03-27T11:43:02.938Z,11.70
2018-03-27T11:44:02.811Z,11.70
2018-03-27T11:45:02.683Z,12.10
2018-03-27T11:46:02.554Z,12.40
2018-03-27T11:47:02.429Z,12.60
2018-03-27T11:48:02.310Z,12.50
2018-03-27T11:49:02.208Z,12.40
2018-03-27T11:50:02.048Z,13.00
2018-03-27T11:51:01.921Z,12.50
2018-03-27T11:52:01.801Z,12.70
2018-03-27T11:53:01.863Z,12.40
2018-03-27T11:54:01.540Z,11.70
2018-03-27T11:55:01.412Z,12.30
2018-03-27T11:56:01.317Z,12.10
2018-03-27T11:57:01.214Z,12.00
2018-03-27T11:58:01.031Z,11.70
2018-03-27T11:59:00.906Z,11.10
2018-03-27T12:00:00.777Z,11.50
2018-03-27T12:01:00.649Z,10.70
2018-03-27T12:02:00.523Z,10.90
2018-03-27T12:03:00.403Z,10.90
2018-03-27T12:04:00.271Z,11.50
2018-03-27T12:05:00.144Z,11.10
2018-03-27T12:06:00.020Z,10.20
2018-03-27T12:06:59.891Z,10.80
2018-03-27T12:07:59.765Z,11.00
2018-03-27T12:08:59.641Z,11.10
2018-03-27T12:09:59.687Z,8.90
2018-03-27T12:10:59.486Z,8.40
2018-03-27T12:11:59.263Z,8.60
2018-03-27T12:13:06.274Z,7.90
2018-03-27T12:15:06.904Z,7.50
2018-03-27T12:16:06.736Z,6.90
2018-03-27T12:17:59.865Z,7.30
2018-03-27T12:18:59.699Z,7.10
2018-03-27T12:20:52.350Z,7.20
2018-03-27T12:21:52.181Z,6.80
2018-03-27T12:23:45.689Z,6.70
2018-03-27T12:24:45.565Z,6.60
2018-03-27T12:26:38.261Z,7.00
2018-03-27T12:27:38.095Z,6.90
2018-03-27T12:29:30.764Z,7.50
2018-03-27T12:30:30.629Z,7.10
2018-03-27T12:32:24.367Z,6.60
2018-03-27T12:33:23.162Z,6.80
2018-03-27T12:35:15.824Z,6.80
2018-03-27T12:36:15.696Z,7.10
2018-03-27T12:38:08.396Z,6.60
2018-03-27T12:39:08.230Z,6.50
2018-03-27T12:41:00.903Z,6.20
2018-03-27T12:42:00.780Z,6.00
2018-03-27T12:43:53.474Z,6.30
2018-03-27T12:44:53.350Z,6.20
2018-03-27T12:46:46.011Z,8.40
2018-03-27T12:47:45.858Z,9.10
2018-03-27T12:49:38.518Z,6.50
2018-03-27T12:50:38.393Z,6.30
2018-03-27T12:52:31.104Z,6.00
2018-03-27T12:53:30.939Z,6.30
2018-03-27T12:55:24.452Z,6.10
2018-03-27T12:56:24.322Z,5.90
2018-03-27T12:58:17.871Z,5.60
2018-03-27T12:59:17.707Z,5.80
2018-03-27T13:01:10.368Z,5.60
2018-03-27T13:02:10.244Z,5.60
2018-03-27T13:04:02.939Z,5.30
2018-03-27T13:05:02.783Z,5.80
2018-03-27T13:07:08.263Z,5.90
2018-03-27T13:08:08.100Z,6.20
2018-03-27T13:10:00.810Z,5.50
2018-03-27T13:11:00.643Z,5.60